sensor_id;sensor_type;location;lat;lon;timestamp;temperature;humidity
8896;DHT22;4484;48.928;10.066;2023-02-22T00:00:29;3.40;99.90
8896;DHT22;4484;48.928;10.066;2023-02-22T00:03:17;3.40;99.90
8896;DHT22;4484;48.928;10.066;2023-02-22T00:05:53;3.40;99.90
8896;DHT22;4484;48.928;10.066;2023-02-22T00:08:22;3.40;99.90
8896;DHT22;4484;48.928;10.066;2023-02-22T00:10:49;3.30;99.90
8896;DHT22;4484;48.928;10.066;2023-02-22T00:13:20;3.30;99.90
8896;DHT22;4484;48.928;10.066;2023-02-22T00:15:50;3.30;99.90
8896;DHT22;4484;48.928;10.066;2023-02-22T00:18:18;3.30;99.90
8896;DHT22;4484;48.928;10.066;2023-02-22T00:20:47;3.20;99.90
8896;DHT22;4484;48.928;10.066;2023-02-22T00:23:20;3.30;99.90
8896;DHT22;4484;48.928;10.066;2023-02-22T00:25:49;3.30;99.90
8896;DHT22;4484;48.928;10.066;2023-02-22T00:28:19;3.30;99.90
8896;DHT22;4484;48.928;10.066;2023-02-22T00:30:46;3.30;99.90
8896;DHT22;4484;48.928;10.066;2023-02-22T00:33:15;3.30;99.90
8896;DHT22;4484;48.928;10.066;2023-02-22T00:35:43;3.30;99.90
8896;DHT22;4484;48.928;10.066;2023-02-22T00:38:13;3.30;99.90
8896;DHT22;4484;48.928;10.066;2023-02-22T00:40:41;3.30;99.90
8896;DHT22;4484;48.928;10.066;2023-02-22T00:43:08;3.30;99.90
8896;DHT22;4484;48.928;10.066;2023-02-22T00:45:36;3.20;99.90
8896;DHT22;4484;48.928;10.066;2023-02-22T00:48:04;3.20;99.90
8896;DHT22;4484;48.928;10.066;2023-02-22T00:50:32;3.20;99.90
8896;DHT22;4484;48.928;10.066;2023-02-22T00:53:00;3.20;99.90
8896;DHT22;4484;48.928;10.066;2023-02-22T00:55:31;3.20;99.90
8896;DHT22;4484;48.928;10.066;2023-02-22T00:57:59;3.20;99.90
8896;DHT22;4484;48.928;10.066;2023-02-22T01:00:36;3.20;99.90
8896;DHT22;4484;48.928;10.066;2023-02-22T01:03:05;3.20;99.90
8896;DHT22;4484;48.928;10.066;2023-02-22T01:05:35;3.00;99.90
8896;DHT22;4484;48.928;10.066;2023-02-22T01:08:06;3.00;99.90
8896;DHT22;4484;48.928;10.066;2023-02-22T01:10:34;2.90;99.90
8896;DHT22;4484;48.928;10.066;2023-02-22T01:13:04;2.90;99.90
8896;DHT22;4484;48.928;10.066;2023-02-22T01:15:36;2.80;99.90
8896;DHT22;4484;48.928;10.066;2023-02-22T01:18:04;2.80;99.90
8896;DHT22;4484;48.928;10.066;2023-02-22T01:20:31;2.70;99.90
8896;DHT22;4484;48.928;10.066;2023-02-22T01:23:00;2.70;99.90
8896;DHT22;4484;48.928;10.066;2023-02-22T01:25:29;2.70;99.90
8896;DHT22;4484;48.928;10.066;2023-02-22T01:27:58;2.60;99.90
8896;DHT22;4484;48.928;10.066;2023-02-22T01:30:32;2.60;99.90
8896;DHT22;4484;48.928;10.066;2023-02-22T01:33:00;2.50;99.90
8896;DHT22;4484;48.928;10.066;2023-02-22T01:35:30;2.50;99.90
8896;DHT22;4484;48.928;10.066;2023-02-22T01:37:57;2.40;99.90
8896;DHT22;4484;48.928;10.066;2023-02-22T01:40:32;2.40;99.90
8896;DHT22;4484;48.928;10.066;2023-02-22T01:43:02;2.30;99.90
8896;DHT22;4484;48.928;10.066;2023-02-22T01:50:24;2.20;99.90
8896;DHT22;4484;48.928;10.066;2023-02-22T01:52:51;2.20;99.90
8896;DHT22;4484;48.928;10.066;2023-02-22T01:55:18;2.10;99.90
8896;DHT22;4484;48.928;10.066;2023-02-22T01:57:46;2.10;99.90
8896;DHT22;4484;48.928;10.066;2023-02-22T02:00:17;2.00;99.90
8896;DHT22;4484;48.928;10.066;2023-02-22T02:03:20;2.10;99.90
8896;DHT22;4484;48.928;10.066;2023-02-22T02:05:49;2.10;99.90
8896;DHT22;4484;48.928;10.066;2023-02-22T02:08:34;2.10;99.90
8896;DHT22;4484;48.928;10.066;2023-02-22T02:11:05;2.20;99.90
8896;DHT22;4484;48.928;10.066;2023-02-22T02:13:35;2.20;99.90
8896;DHT22;4484;48.928;10.066;2023-02-22T02:16:02;2.20;99.90
8896;DHT22;4484;48.928;10.066;2023-02-22T02:18:30;2.20;99.90
8896;DHT22;4484;48.928;10.066;2023-02-22T02:21:19;2.20;99.90
8896;DHT22;4484;48.928;10.066;2023-02-22T02:35:03;2.20;99.90
8896;DHT22;4484;48.928;10.066;2023-02-22T02:40:28;2.30;99.90
8896;DHT22;4484;48.928;10.066;2023-02-22T02:43:00;2.20;99.90
8896;DHT22;4484;48.928;10.066;2023-02-22T02:45:39;2.20;99.90
8896;DHT22;4484;48.928;10.066;2023-02-22T02:48:11;2.20;99.90
8896;DHT22;4484;48.928;10.066;2023-02-22T02:50:44;2.20;99.90
8896;DHT22;4484;48.928;10.066;2023-02-22T02:53:15;2.20;99.90
8896;DHT22;4484;48.928;10.066;2023-02-22T02:55:43;2.20;99.90
8896;DHT22;4484;48.928;10.066;2023-02-22T02:58:17;2.20;99.90
8896;DHT22;4484;48.928;10.066;2023-02-22T03:00:45;2.30;99.90
8896;DHT22;4484;48.928;10.066;2023-02-22T03:03:51;2.30;99.90
8896;DHT22;4484;48.928;10.066;2023-02-22T03:06:39;2.40;99.90
8896;DHT22;4484;48.928;10.066;2023-02-22T03:09:26;2.50;99.90
8896;DHT22;4484;48.928;10.066;2023-02-22T03:14:49;2.60;99.90
8896;DHT22;4484;48.928;10.066;2023-02-22T03:17:44;2.60;99.90
8896;DHT22;4484;48.928;10.066;2023-02-22T03:20:38;2.60;99.90
8896;DHT22;4484;48.928;10.066;2023-02-22T03:25:51;2.60;99.90
8896;DHT22;4484;48.928;10.066;2023-02-22T03:28:22;2.60;99.90
8896;DHT22;4484;48.928;10.066;2023-02-22T03:30:59;2.60;99.90
8896;DHT22;4484;48.928;10.066;2023-02-22T03:33:49;2.60;99.90
8896;DHT22;4484;48.928;10.066;2023-02-22T03:38:54;2.50;99.90
8896;DHT22;4484;48.928;10.066;2023-02-22T03:41:23;2.50;99.90
8896;DHT22;4484;48.928;10.066;2023-02-22T03:44:05;2.50;99.90
8896;DHT22;4484;48.928;10.066;2023-02-22T03:46:33;2.40;99.90
8896;DHT22;4484;48.928;10.066;2023-02-22T03:51:39;2.30;99.90
8896;DHT22;4484;48.928;10.066;2023-02-22T03:54:07;2.40;99.90
8896;DHT22;4484;48.928;10.066;2023-02-22T03:56:40;2.40;99.90
8896;DHT22;4484;48.928;10.066;2023-02-22T03:59:13;2.30;99.90
8896;DHT22;4484;48.928;10.066;2023-02-22T04:01:40;2.40;99.90
8896;DHT22;4484;48.928;10.066;2023-02-22T04:04:07;2.40;99.90
8896;DHT22;4484;48.928;10.066;2023-02-22T04:06:36;2.40;99.90
8896;DHT22;4484;48.928;10.066;2023-02-22T04:09:03;2.40;99.90
8896;DHT22;4484;48.928;10.066;2023-02-22T04:11:31;2.50;99.90
8896;DHT22;4484;48.928;10.066;2023-02-22T04:13:58;2.50;99.90
8896;DHT22;4484;48.928;10.066;2023-02-22T04:16:26;2.40;99.90
8896;DHT22;4484;48.928;10.066;2023-02-22T04:18:53;2.50;99.90
8896;DHT22;4484;48.928;10.066;2023-02-22T04:21:21;2.50;99.90
8896;DHT22;4484;48.928;10.066;2023-02-22T04:23:49;2.40;99.90
8896;DHT22;4484;48.928;10.066;2023-02-22T04:26:16;2.40;99.90
8896;DHT22;4484;48.928;10.066;2023-02-22T04:28:49;2.40;99.90
8896;DHT22;4484;48.928;10.066;2023-02-22T04:31:18;2.30;99.90
8896;DHT22;4484;48.928;10.066;2023-02-22T04:33:45;2.30;99.90
8896;DHT22;4484;48.928;10.066;2023-02-22T04:36:16;2.20;99.90
8896;DHT22;4484;48.928;10.066;2023-02-22T04:38:44;2.10;99.90
8896;DHT22;4484;48.928;10.066;2023-02-22T04:41:11;2.00;99.90
8896;DHT22;4484;48.928;10.066;2023-02-22T04:43:39;2.00;99.90
8896;DHT22;4484;48.928;10.066;2023-02-22T04:46:14;1.90;99.90
8896;DHT22;4484;48.928;10.066;2023-02-22T04:48:41;1.90;99.90
8896;DHT22;4484;48.928;10.066;2023-02-22T04:51:09;1.90;99.90
8896;DHT22;4484;48.928;10.066;2023-02-22T04:53:39;1.80;99.90
8896;DHT22;4484;48.928;10.066;2023-02-22T04:56:06;1.80;99.90
8896;DHT22;4484;48.928;10.066;2023-02-22T04:58:33;1.70;99.90
8896;DHT22;4484;48.928;10.066;2023-02-22T05:01:00;1.70;99.90
8896;DHT22;4484;48.928;10.066;2023-02-22T05:03:27;1.60;99.90
8896;DHT22;4484;48.928;10.066;2023-02-22T05:05:54;1.60;99.90
8896;DHT22;4484;48.928;10.066;2023-02-22T05:08:21;1.60;99.90
8896;DHT22;4484;48.928;10.066;2023-02-22T05:10:48;1.60;99.90
8896;DHT22;4484;48.928;10.066;2023-02-22T05:13:15;1.60;99.90
8896;DHT22;4484;48.928;10.066;2023-02-22T05:15:42;1.70;99.90
8896;DHT22;4484;48.928;10.066;2023-02-22T05:18:09;1.80;99.90
8896;DHT22;4484;48.928;10.066;2023-02-22T05:20:35;1.80;99.90
8896;DHT22;4484;48.928;10.066;2023-02-22T05:23:03;1.80;99.90
8896;DHT22;4484;48.928;10.066;2023-02-22T05:25:31;1.80;99.90
8896;DHT22;4484;48.928;10.066;2023-02-22T05:28:01;1.70;99.90
8896;DHT22;4484;48.928;10.066;2023-02-22T05:30:32;1.70;99.90
8896;DHT22;4484;48.928;10.066;2023-02-22T05:32:59;1.70;99.90
8896;DHT22;4484;48.928;10.066;2023-02-22T05:35:27;1.60;99.90
8896;DHT22;4484;48.928;10.066;2023-02-22T05:37:55;1.60;99.90
8896;DHT22;4484;48.928;10.066;2023-02-22T05:40:25;1.60;99.90
8896;DHT22;4484;48.928;10.066;2023-02-22T05:42:53;1.50;99.90
8896;DHT22;4484;48.928;10.066;2023-02-22T05:45:23;1.50;99.90
8896;DHT22;4484;48.928;10.066;2023-02-22T05:47:51;1.50;99.90
8896;DHT22;4484;48.928;10.066;2023-02-22T05:50:19;1.50;99.90
8896;DHT22;4484;48.928;10.066;2023-02-22T05:52:47;1.40;99.90
8896;DHT22;4484;48.928;10.066;2023-02-22T05:55:16;1.40;99.90
8896;DHT22;4484;48.928;10.066;2023-02-22T05:57:44;1.40;99.90
8896;DHT22;4484;48.928;10.066;2023-02-22T06:00:17;1.40;99.90
8896;DHT22;4484;48.928;10.066;2023-02-22T06:02:45;1.40;99.90
8896;DHT22;4484;48.928;10.066;2023-02-22T06:05:11;1.40;99.90
8896;DHT22;4484;48.928;10.066;2023-02-22T06:07:39;1.40;99.90
8896;DHT22;4484;48.928;10.066;2023-02-22T06:10:06;1.40;99.90
8896;DHT22;4484;48.928;10.066;2023-02-22T06:12:33;1.40;99.90
8896;DHT22;4484;48.928;10.066;2023-02-22T06:15:00;1.40;99.90
8896;DHT22;4484;48.928;10.066;2023-02-22T06:17:27;1.40;99.90
8896;DHT22;4484;48.928;10.066;2023-02-22T06:19:56;1.40;99.90
8896;DHT22;4484;48.928;10.066;2023-02-22T06:22:23;1.40;99.90
8896;DHT22;4484;48.928;10.066;2023-02-22T06:24:50;1.40;99.90
8896;DHT22;4484;48.928;10.066;2023-02-22T06:27:19;1.40;99.90
8896;DHT22;4484;48.928;10.066;2023-02-22T06:29:46;1.40;99.90
8896;DHT22;4484;48.928;10.066;2023-02-22T06:32:13;1.40;99.90
8896;DHT22;4484;48.928;10.066;2023-02-22T06:34:40;1.40;99.90
8896;DHT22;4484;48.928;10.066;2023-02-22T06:37:07;1.50;99.90
8896;DHT22;4484;48.928;10.066;2023-02-22T06:39:34;1.50;99.90
8896;DHT22;4484;48.928;10.066;2023-02-22T06:42:01;1.50;99.90
8896;DHT22;4484;48.928;10.066;2023-02-22T06:44:28;1.60;99.90
8896;DHT22;4484;48.928;10.066;2023-02-22T06:46:55;1.60;99.90
8896;DHT22;4484;48.928;10.066;2023-02-22T06:49:22;1.60;99.90
8896;DHT22;4484;48.928;10.066;2023-02-22T06:51:49;1.70;99.90
8896;DHT22;4484;48.928;10.066;2023-02-22T06:54:16;1.80;99.90
8896;DHT22;4484;48.928;10.066;2023-02-22T06:56:43;1.80;99.90
8896;DHT22;4484;48.928;10.066;2023-02-22T06:59:10;1.90;99.90
8896;DHT22;4484;48.928;10.066;2023-02-22T07:01:40;1.90;99.90
8896;DHT22;4484;48.928;10.066;2023-02-22T07:04:06;2.00;99.90
8896;DHT22;4484;48.928;10.066;2023-02-22T07:06:34;2.10;99.90
8896;DHT22;4484;48.928;10.066;2023-02-22T07:09:02;2.20;99.90
8896;DHT22;4484;48.928;10.066;2023-02-22T07:11:29;2.30;99.90
8896;DHT22;4484;48.928;10.066;2023-02-22T07:13:56;2.40;99.90
8896;DHT22;4484;48.928;10.066;2023-02-22T07:16:23;2.50;99.90
8896;DHT22;4484;48.928;10.066;2023-02-22T07:18:50;2.60;99.90
8896;DHT22;4484;48.928;10.066;2023-02-22T07:21:17;2.60;99.90
8896;DHT22;4484;48.928;10.066;2023-02-22T07:23:52;2.70;99.90
8896;DHT22;4484;48.928;10.066;2023-02-22T07:26:20;2.80;99.90
8896;DHT22;4484;48.928;10.066;2023-02-22T07:28:47;2.90;99.90
8896;DHT22;4484;48.928;10.066;2023-02-22T07:31:14;3.00;99.90
8896;DHT22;4484;48.928;10.066;2023-02-22T07:33:41;3.10;99.90
8896;DHT22;4484;48.928;10.066;2023-02-22T07:36:08;3.20;99.90
8896;DHT22;4484;48.928;10.066;2023-02-22T07:38:35;3.40;99.90
8896;DHT22;4484;48.928;10.066;2023-02-22T07:41:03;3.50;99.90
8896;DHT22;4484;48.928;10.066;2023-02-22T07:43:30;3.70;99.90
8896;DHT22;4484;48.928;10.066;2023-02-22T07:45:59;4.00;99.90
8896;DHT22;4484;48.928;10.066;2023-02-22T07:48:29;4.10;99.90
8896;DHT22;4484;48.928;10.066;2023-02-22T07:50:57;4.30;99.90
8896;DHT22;4484;48.928;10.066;2023-02-22T07:53:27;4.40;99.90
8896;DHT22;4484;48.928;10.066;2023-02-22T07:55:57;4.60;99.90
8896;DHT22;4484;48.928;10.066;2023-02-22T07:58:25;4.70;99.90
8896;DHT22;4484;48.928;10.066;2023-02-22T08:00:53;4.90;99.90
8896;DHT22;4484;48.928;10.066;2023-02-22T08:03:23;5.10;99.90
8896;DHT22;4484;48.928;10.066;2023-02-22T08:05:55;5.50;99.90
8896;DHT22;4484;48.928;10.066;2023-02-22T08:08:23;6.00;99.90
8896;DHT22;4484;48.928;10.066;2023-02-22T08:10:50;6.60;99.90
8896;DHT22;4484;48.928;10.066;2023-02-22T08:13:18;7.20;99.90
8896;DHT22;4484;48.928;10.066;2023-02-22T08:15:45;7.90;99.90
8896;DHT22;4484;48.928;10.066;2023-02-22T08:18:17;8.50;99.90
8896;DHT22;4484;48.928;10.066;2023-02-22T08:20:46;9.00;99.90
8896;DHT22;4484;48.928;10.066;2023-02-22T08:23:15;9.40;99.90
8896;DHT22;4484;48.928;10.066;2023-02-22T08:25:43;9.80;99.90
8896;DHT22;4484;48.928;10.066;2023-02-22T08:28:13;10.20;99.90
8896;DHT22;4484;48.928;10.066;2023-02-22T08:30:41;10.40;99.90
8896;DHT22;4484;48.928;10.066;2023-02-22T08:33:13;10.70;99.90
8896;DHT22;4484;48.928;10.066;2023-02-22T08:35:42;10.80;99.90
8896;DHT22;4484;48.928;10.066;2023-02-22T08:38:35;11.00;99.90
8896;DHT22;4484;48.928;10.066;2023-02-22T08:41:03;11.20;99.90
8896;DHT22;4484;48.928;10.066;2023-02-22T08:43:30;11.30;99.90
8896;DHT22;4484;48.928;10.066;2023-02-22T08:45:57;11.60;99.90
8896;DHT22;4484;48.928;10.066;2023-02-22T08:48:24;11.80;99.90
8896;DHT22;4484;48.928;10.066;2023-02-22T08:50:51;11.90;99.90
8896;DHT22;4484;48.928;10.066;2023-02-22T08:53:18;12.00;99.90
8896;DHT22;4484;48.928;10.066;2023-02-22T08:55:45;12.10;99.90
8896;DHT22;4484;48.928;10.066;2023-02-22T08:58:12;12.40;99.90
8896;DHT22;4484;48.928;10.066;2023-02-22T09:00:41;12.70;99.90
8896;DHT22;4484;48.928;10.066;2023-02-22T09:03:12;13.20;99.90
8896;DHT22;4484;48.928;10.066;2023-02-22T09:05:41;13.80;99.90
8896;DHT22;4484;48.928;10.066;2023-02-22T09:08:08;14.30;99.90
8896;DHT22;4484;48.928;10.066;2023-02-22T09:10:35;14.80;99.90
8896;DHT22;4484;48.928;10.066;2023-02-22T09:13:02;15.20;99.90
8896;DHT22;4484;48.928;10.066;2023-02-22T09:15:30;15.60;99.90
8896;DHT22;4484;48.928;10.066;2023-02-22T09:17:58;15.80;99.90
8896;DHT22;4484;48.928;10.066;2023-02-22T09:20:26;16.00;99.90
8896;DHT22;4484;48.928;10.066;2023-02-22T09:22:54;16.20;99.90
8896;DHT22;4484;48.928;10.066;2023-02-22T09:25:22;16.40;99.90
8896;DHT22;4484;48.928;10.066;2023-02-22T09:27:50;16.60;99.90
8896;DHT22;4484;48.928;10.066;2023-02-22T09:30:28;16.70;99.90
8896;DHT22;4484;48.928;10.066;2023-02-22T09:33:01;16.90;99.50
8896;DHT22;4484;48.928;10.066;2023-02-22T09:35:28;17.10;98.00
8896;DHT22;4484;48.928;10.066;2023-02-22T09:37:57;17.10;97.30
8896;DHT22;4484;48.928;10.066;2023-02-22T09:40:29;17.00;96.80
8896;DHT22;4484;48.928;10.066;2023-02-22T09:43:08;17.00;96.90
8896;DHT22;4484;48.928;10.066;2023-02-22T09:45:44;17.00;96.20
8896;DHT22;4484;48.928;10.066;2023-02-22T09:48:15;17.20;95.00
8896;DHT22;4484;48.928;10.066;2023-02-22T09:50:51;17.00;94.80
8896;DHT22;4484;48.928;10.066;2023-02-22T09:53:24;17.00;94.70
8896;DHT22;4484;48.928;10.066;2023-02-22T09:56:00;17.20;95.70
8896;DHT22;4484;48.928;10.066;2023-02-22T09:58:31;17.70;94.40
8896;DHT22;4484;48.928;10.066;2023-02-22T10:03:58;18.50;93.20
8896;DHT22;4484;48.928;10.066;2023-02-22T10:06:27;19.00;92.70
8896;DHT22;4484;48.928;10.066;2023-02-22T10:08:57;19.30;88.50
8896;DHT22;4484;48.928;10.066;2023-02-22T10:11:32;19.40;90.40
8896;DHT22;4484;48.928;10.066;2023-02-22T10:15:04;19.70;87.90
8896;DHT22;4484;48.928;10.066;2023-02-22T10:23:03;20.10;84.00
8896;DHT22;4484;48.928;10.066;2023-02-22T10:25:36;20.20;82.30
8896;DHT22;4484;48.928;10.066;2023-02-22T10:28:23;20.60;84.60
8896;DHT22;4484;48.928;10.066;2023-02-22T10:31:05;21.20;83.80
8896;DHT22;4484;48.928;10.066;2023-02-22T10:33:40;21.50;78.90
8896;DHT22;4484;48.928;10.066;2023-02-22T10:36:17;21.50;75.40
8896;DHT22;4484;48.928;10.066;2023-02-22T10:38:53;21.50;74.90
8896;DHT22;4484;48.928;10.066;2023-02-22T10:41:35;21.20;73.10
8896;DHT22;4484;48.928;10.066;2023-02-22T10:44:04;21.00;76.00
8896;DHT22;4484;48.928;10.066;2023-02-22T10:46:32;21.00;75.60
8896;DHT22;4484;48.928;10.066;2023-02-22T10:49:03;20.90;72.00
8896;DHT22;4484;48.928;10.066;2023-02-22T10:51:33;20.70;71.80
8896;DHT22;4484;48.928;10.066;2023-02-22T10:56:46;20.50;71.70
8896;DHT22;4484;48.928;10.066;2023-02-22T10:59:32;20.70;72.00
8896;DHT22;4484;48.928;10.066;2023-02-22T11:04:55;21.40;69.80
8896;DHT22;4484;48.928;10.066;2023-02-22T11:07:30;21.80;71.80
8896;DHT22;4484;48.928;10.066;2023-02-22T11:09:58;22.10;65.20
8896;DHT22;4484;48.928;10.066;2023-02-22T11:12:32;22.30;66.80
8896;DHT22;4484;48.928;10.066;2023-02-22T11:17:50;22.70;64.40
8896;DHT22;4484;48.928;10.066;2023-02-22T11:20:20;22.90;62.40
8896;DHT22;4484;48.928;10.066;2023-02-22T11:22:58;23.30;64.70
8896;DHT22;4484;48.928;10.066;2023-02-22T11:25:31;23.20;59.60
8896;DHT22;4484;48.928;10.066;2023-02-22T11:28:26;22.90;59.90
8896;DHT22;4484;48.928;10.066;2023-02-22T11:33:35;23.00;63.70
8896;DHT22;4484;48.928;10.066;2023-02-22T11:36:04;22.80;58.80
8896;DHT22;4484;48.928;10.066;2023-02-22T11:38:36;22.70;60.00
8896;DHT22;4484;48.928;10.066;2023-02-22T11:41:11;22.80;61.20
8896;DHT22;4484;48.928;10.066;2023-02-22T11:43:44;22.60;59.70
8896;DHT22;4484;48.928;10.066;2023-02-22T11:49:02;22.70;60.10
8896;DHT22;4484;48.928;10.066;2023-02-22T11:54:38;23.10;59.60
8896;DHT22;4484;48.928;10.066;2023-02-22T11:57:42;22.40;59.70
8896;DHT22;4484;48.928;10.066;2023-02-22T12:00:33;21.70;61.50
8896;DHT22;4484;48.928;10.066;2023-02-22T12:14:20;20.10;66.10
8896;DHT22;4484;48.928;10.066;2023-02-22T12:19:32;20.10;69.10
8896;DHT22;4484;48.928;10.066;2023-02-22T12:22:15;20.20;72.00
8896;DHT22;4484;48.928;10.066;2023-02-22T12:25:04;20.30;69.30
8896;DHT22;4484;48.928;10.066;2023-02-22T12:27:44;20.30;68.30
8896;DHT22;4484;48.928;10.066;2023-02-22T12:30:23;20.10;67.20
8896;DHT22;4484;48.928;10.066;2023-02-22T12:32:53;20.10;69.40
8896;DHT22;4484;48.928;10.066;2023-02-22T12:35:39;20.10;68.50
8896;DHT22;4484;48.928;10.066;2023-02-22T12:38:27;19.80;67.00
8896;DHT22;4484;48.928;10.066;2023-02-22T12:41:14;19.70;69.80
8896;DHT22;4484;48.928;10.066;2023-02-22T12:49:35;19.10;68.30
8896;DHT22;4484;48.928;10.066;2023-02-22T12:52:24;18.90;70.00
8896;DHT22;4484;48.928;10.066;2023-02-22T13:05:25;18.30;71.00
8896;DHT22;4484;48.928;10.066;2023-02-22T13:21:14;18.20;74.30
8896;DHT22;4484;48.928;10.066;2023-02-22T13:23:57;18.20;72.60
8896;DHT22;4484;48.928;10.066;2023-02-22T13:27:10;18.20;73.20
8896;DHT22;4484;48.928;10.066;2023-02-22T13:29:42;18.20;73.00
8896;DHT22;4484;48.928;10.066;2023-02-22T13:34:56;18.50;71.50
8896;DHT22;4484;48.928;10.066;2023-02-22T13:51:35;19.70;64.50
8896;DHT22;4484;48.928;10.066;2023-02-22T13:54:10;19.90;68.60
8896;DHT22;4484;48.928;10.066;2023-02-22T13:56:43;19.70;64.70
8896;DHT22;4484;48.928;10.066;2023-02-22T13:59:26;19.40;65.80
8896;DHT22;4484;48.928;10.066;2023-02-22T14:01:54;19.20;65.10
8896;DHT22;4484;48.928;10.066;2023-02-22T14:06:57;19.10;66.60
8896;DHT22;4484;48.928;10.066;2023-02-22T14:09:56;19.10;69.00
8896;DHT22;4484;48.928;10.066;2023-02-22T14:20:36;18.30;69.30
8896;DHT22;4484;48.928;10.066;2023-02-22T14:23:27;18.10;70.90
8896;DHT22;4484;48.928;10.066;2023-02-22T14:26:13;17.80;70.80
8896;DHT22;4484;48.928;10.066;2023-02-22T14:29:01;17.70;72.80
8896;DHT22;4484;48.928;10.066;2023-02-22T14:34:11;17.30;70.80
8896;DHT22;4484;48.928;10.066;2023-02-22T14:36:59;17.00;70.10
8896;DHT22;4484;48.928;10.066;2023-02-22T14:39:35;16.80;72.90
8896;DHT22;4484;48.928;10.066;2023-02-22T14:42:16;16.80;73.50
8896;DHT22;4484;48.928;10.066;2023-02-22T14:47:25;16.50;73.30
8896;DHT22;4484;48.928;10.066;2023-02-22T14:50:06;16.40;73.80
8896;DHT22;4484;48.928;10.066;2023-02-22T14:52:36;16.30;71.80
8896;DHT22;4484;48.928;10.066;2023-02-22T14:55:26;16.20;72.80
8896;DHT22;4484;48.928;10.066;2023-02-22T14:58:23;16.10;70.70
8896;DHT22;4484;48.928;10.066;2023-02-22T15:00:52;15.90;70.40
8896;DHT22;4484;48.928;10.066;2023-02-22T15:03:29;15.80;70.70
8896;DHT22;4484;48.928;10.066;2023-02-22T15:06:19;15.70;70.60
8896;DHT22;4484;48.928;10.066;2023-02-22T15:08:47;15.60;70.90
8896;DHT22;4484;48.928;10.066;2023-02-22T15:11:26;15.50;72.40
8896;DHT22;4484;48.928;10.066;2023-02-22T15:13:58;15.50;73.50
8896;DHT22;4484;48.928;10.066;2023-02-22T15:16:28;15.40;73.60
8896;DHT22;4484;48.928;10.066;2023-02-22T15:18:59;15.30;74.80
8896;DHT22;4484;48.928;10.066;2023-02-22T15:21:27;15.20;77.10
8896;DHT22;4484;48.928;10.066;2023-02-22T15:24:05;15.20;79.50
8896;DHT22;4484;48.928;10.066;2023-02-22T15:26:36;15.10;81.40
8896;DHT22;4484;48.928;10.066;2023-02-22T15:29:31;14.90;83.70
8896;DHT22;4484;48.928;10.066;2023-02-22T15:32:00;14.90;85.70
8896;DHT22;4484;48.928;10.066;2023-02-22T15:34:29;14.80;88.20
8896;DHT22;4484;48.928;10.066;2023-02-22T15:37:13;14.80;90.00
8896;DHT22;4484;48.928;10.066;2023-02-22T15:39:44;14.70;90.30
8896;DHT22;4484;48.928;10.066;2023-02-22T15:42:15;14.70;91.30
8896;DHT22;4484;48.928;10.066;2023-02-22T15:44:48;14.60;92.40
8896;DHT22;4484;48.928;10.066;2023-02-22T15:47:21;14.60;93.00
8896;DHT22;4484;48.928;10.066;2023-02-22T15:52:56;14.30;94.90
8896;DHT22;4484;48.928;10.066;2023-02-22T15:55:38;14.30;95.70
8896;DHT22;4484;48.928;10.066;2023-02-22T16:01:08;13.80;97.50
8896;DHT22;4484;48.928;10.066;2023-02-22T16:06:14;13.40;99.20
8896;DHT22;4484;48.928;10.066;2023-02-22T16:08:47;13.20;99.70
8896;DHT22;4484;48.928;10.066;2023-02-22T16:11:25;13.00;99.90
8896;DHT22;4484;48.928;10.066;2023-02-22T16:14:21;12.80;99.90
8896;DHT22;4484;48.928;10.066;2023-02-22T16:16:48;12.60;99.90
8896;DHT22;4484;48.928;10.066;2023-02-22T16:19:31;12.50;99.90
8896;DHT22;4484;48.928;10.066;2023-02-22T16:22:04;12.30;99.90
8896;DHT22;4484;48.928;10.066;2023-02-22T16:24:36;12.20;99.90
8896;DHT22;4484;48.928;10.066;2023-02-22T16:27:15;12.10;99.90
8896;DHT22;4484;48.928;10.066;2023-02-22T16:29:42;12.00;99.90
8896;DHT22;4484;48.928;10.066;2023-02-22T16:32:09;11.80;99.90
8896;DHT22;4484;48.928;10.066;2023-02-22T16:34:37;11.70;99.90
8896;DHT22;4484;48.928;10.066;2023-02-22T16:37:04;11.60;99.90
8896;DHT22;4484;48.928;10.066;2023-02-22T16:39:31;11.60;99.90
8896;DHT22;4484;48.928;10.066;2023-02-22T16:42:02;11.50;99.90
8896;DHT22;4484;48.928;10.066;2023-02-22T16:44:30;11.40;99.90
8896;DHT22;4484;48.928;10.066;2023-02-22T16:46:58;11.30;99.90
8896;DHT22;4484;48.928;10.066;2023-02-22T16:49:26;11.20;99.90
8896;DHT22;4484;48.928;10.066;2023-02-22T16:51:55;11.20;99.90
8896;DHT22;4484;48.928;10.066;2023-02-22T16:54:30;11.10;99.90
8896;DHT22;4484;48.928;10.066;2023-02-22T16:57:00;11.10;99.90
8896;DHT22;4484;48.928;10.066;2023-02-22T16:59:32;11.00;99.90
8896;DHT22;4484;48.928;10.066;2023-02-22T17:02:01;11.00;99.90
8896;DHT22;4484;48.928;10.066;2023-02-22T17:04:33;10.90;99.90
8896;DHT22;4484;48.928;10.066;2023-02-22T17:07:00;10.80;99.90
8896;DHT22;4484;48.928;10.066;2023-02-22T17:09:30;10.70;99.90
8896;DHT22;4484;48.928;10.066;2023-02-22T17:11:58;10.70;99.90
8896;DHT22;4484;48.928;10.066;2023-02-22T17:14:32;10.60;99.90
8896;DHT22;4484;48.928;10.066;2023-02-22T17:17:00;10.60;99.90
8896;DHT22;4484;48.928;10.066;2023-02-22T17:19:27;10.50;99.90
8896;DHT22;4484;48.928;10.066;2023-02-22T17:21:54;10.50;99.90
8896;DHT22;4484;48.928;10.066;2023-02-22T17:24:22;10.40;99.90
8896;DHT22;4484;48.928;10.066;2023-02-22T17:26:50;10.40;99.90
8896;DHT22;4484;48.928;10.066;2023-02-22T17:29:18;10.30;99.90
8896;DHT22;4484;48.928;10.066;2023-02-22T17:31:46;10.20;99.90
8896;DHT22;4484;48.928;10.066;2023-02-22T17:34:14;10.20;99.90
8896;DHT22;4484;48.928;10.066;2023-02-22T17:36:41;10.10;99.90
8896;DHT22;4484;48.928;10.066;2023-02-22T17:39:09;10.00;99.90
8896;DHT22;4484;48.928;10.066;2023-02-22T17:41:37;9.90;99.90
8896;DHT22;4484;48.928;10.066;2023-02-22T17:44:06;9.90;99.90
8896;DHT22;4484;48.928;10.066;2023-02-22T17:46:35;9.80;99.90
8896;DHT22;4484;48.928;10.066;2023-02-22T17:49:02;9.70;99.90
8896;DHT22;4484;48.928;10.066;2023-02-22T17:51:29;9.70;99.90
8896;DHT22;4484;48.928;10.066;2023-02-22T17:53:56;9.60;99.90
8896;DHT22;4484;48.928;10.066;2023-02-22T17:56:23;9.50;99.90
8896;DHT22;4484;48.928;10.066;2023-02-22T17:58:52;9.40;99.90
8896;DHT22;4484;48.928;10.066;2023-02-22T18:01:24;9.40;99.90
8896;DHT22;4484;48.928;10.066;2023-02-22T18:03:54;9.30;99.90
8896;DHT22;4484;48.928;10.066;2023-02-22T18:06:23;9.30;99.90
8896;DHT22;4484;48.928;10.066;2023-02-22T18:08:53;9.20;99.90
8896;DHT22;4484;48.928;10.066;2023-02-22T18:11:23;9.20;99.90
8896;DHT22;4484;48.928;10.066;2023-02-22T18:13:56;9.10;99.90
8896;DHT22;4484;48.928;10.066;2023-02-22T18:16:24;9.10;99.90
8896;DHT22;4484;48.928;10.066;2023-02-22T18:18:55;9.00;99.90
8896;DHT22;4484;48.928;10.066;2023-02-22T18:21:23;9.00;99.90
8896;DHT22;4484;48.928;10.066;2023-02-22T18:23:50;9.00;99.90
8896;DHT22;4484;48.928;10.066;2023-02-22T18:26:19;9.00;99.90
8896;DHT22;4484;48.928;10.066;2023-02-22T18:28:46;8.90;99.90
8896;DHT22;4484;48.928;10.066;2023-02-22T18:31:18;8.90;99.90
8896;DHT22;4484;48.928;10.066;2023-02-22T18:33:48;8.90;99.90
8896;DHT22;4484;48.928;10.066;2023-02-22T18:36:17;8.80;99.90
8896;DHT22;4484;48.928;10.066;2023-02-22T18:38:50;8.80;99.90
8896;DHT22;4484;48.928;10.066;2023-02-22T18:41:19;8.70;99.90
8896;DHT22;4484;48.928;10.066;2023-02-22T18:43:47;8.70;99.90